Terminal Aerodrome Forecast
Issued by NWS

Current Version | Previous Version | Graphics & Text | Print | Product List | Glossary On
Versions: 1 2 3 4 5 6 7 8 9 10 11 12 13 14 15
000
FTUS41 KPBZ 271700
TAFMGW
TAF
KMGW 271722Z 2718/2818 11003KT P6SM SKC
     FM280900 08002KT 4SM BR SKC
     FM281100 19002KT 6SM BR SKC=

USA.gov is the U.S. government's official web portal to all federal, state and local government web resources and services.